createdAt,value
2018-08-14T06:15:15.216Z,1012.91
2018-08-14T06:15:56.176Z,1012.91
2018-08-14T06:16:37.076Z,1012.92
2018-08-14T06:17:18.044Z,1012.91
2018-08-14T06:17:58.960Z,1012.92
2018-08-14T06:18:39.884Z,1012.88
2018-08-14T06:19:20.873Z,1012.89
2018-08-14T06:20:01.862Z,1012.9
2018-08-14T06:20:42.981Z,1012.87
2018-08-14T06:21:23.946Z,1012.89
2018-08-14T06:22:04.831Z,1012.91
2018-08-14T06:22:45.904Z,1012.9
2018-08-14T06:23:26.749Z,1012.88
2018-08-14T06:24:07.653Z,1012.91
2018-08-14T06:24:48.574Z,1012.9
2018-08-14T06:25:29.607Z,1012.89
2018-08-14T06:26:10.569Z,1012.91
2018-08-14T06:26:51.509Z,1012.93
2018-08-14T06:27:32.422Z,1012.96
2018-08-14T06:28:13.471Z,1012.94
2018-08-14T06:28:54.602Z,1012.95
2018-08-14T06:29:35.618Z,1012.99
2018-08-14T06:30:16.511Z,1013.03
2018-08-14T06:30:57.397Z,1013
2018-08-14T06:31:38.854Z,1013.03
2018-08-14T06:32:19.766Z,1013.03
2018-08-14T06:33:00.705Z,1013.06
2018-08-14T06:33:41.542Z,1013.05
2018-08-14T06:34:22.622Z,1013.05
2018-08-14T06:35:03.541Z,1013.14
2018-08-14T06:35:44.637Z,1013.19
2018-08-14T06:36:25.605Z,1013.27
2018-08-14T06:37:06.540Z,1013.28
2018-08-14T06:37:47.439Z,1013.29
2018-08-14T06:38:28.277Z,1013.32
2018-08-14T06:39:09.253Z,1013.36
2018-08-14T06:39:50.149Z,1013.4
2018-08-14T06:40:31.165Z,1013.4
2018-08-14T06:41:12.164Z,1013.42
2018-08-14T06:41:53.122Z,1013.47
2018-08-14T06:42:34.176Z,1013.43
2018-08-14T06:43:15.113Z,1013.47
2018-08-14T06:43:56.000Z,1013.53
2018-08-14T06:44:37.014Z,1013.52
2018-08-14T06:45:18.022Z,1013.53
2018-08-14T06:45:58.919Z,1013.55
2018-08-14T06:46:39.730Z,1013.53
2018-08-14T06:47:20.505Z,1013.49
2018-08-14T06:48:01.318Z,1013.49
2018-08-14T06:48:42.094Z,1013.48
2018-08-14T06:49:22.788Z,1013.47
2018-08-14T06:50:03.700Z,1013.47
2018-08-14T06:50:44.506Z,1013.49
2018-08-14T06:51:25.320Z,1013.44
2018-08-14T06:52:06.195Z,1013.43
2018-08-14T06:52:47.122Z,1013.45
2018-08-14T06:53:28.044Z,1013.46
2018-08-14T06:54:09.018Z,1013.45
2018-08-14T06:54:49.920Z,1013.41
2018-08-14T06:55:30.906Z,1013.43
2018-08-14T06:56:11.912Z,1013.48
2018-08-14T06:56:52.773Z,1013.51
2018-08-14T06:57:33.760Z,1013.56
2018-08-14T06:58:14.620Z,1013.56
2018-08-14T06:58:55.589Z,1013.57
2018-08-14T06:59:36.529Z,1013.59
2018-08-14T07:00:17.450Z,1013.56
2018-08-14T07:00:58.397Z,1013.62
2018-08-14T07:01:39.170Z,1013.62
2018-08-14T07:02:20.206Z,1013.62
2018-08-14T07:03:01.190Z,1013.66
2018-08-14T07:03:42.163Z,1013.61
2018-08-14T07:04:23.107Z,1013.63
2018-08-14T07:05:04.841Z,1013.61
2018-08-14T07:05:45.656Z,1013.59
2018-08-14T07:06:26.488Z,1013.64
2018-08-14T07:07:07.432Z,1013.59
2018-08-14T07:07:48.452Z,1013.56
2018-08-14T07:08:29.615Z,1013.49
2018-08-14T07:09:10.540Z,1013.47
2018-08-14T07:09:51.453Z,1013.47
2018-08-14T07:10:32.479Z,1013.44
2018-08-14T07:11:13.411Z,1013.43
2018-08-14T07:11:54.248Z,1013.43
2018-08-14T07:12:35.181Z,1013.45
2018-08-14T07:13:16.268Z,1013.42
2018-08-14T07:13:57.156Z,1013.41
2018-08-14T07:14:38.134Z,1013.43
2018-08-14T07:15:19.043Z,1013.42
2018-08-14T07:15:59.899Z,1013.4
2018-08-14T07:16:40.786Z,1013.41
2018-08-14T07:17:21.694Z,1013.44
2018-08-14T07:18:02.713Z,1013.41
2018-08-14T07:18:43.623Z,1013.41
2018-08-14T07:19:24.491Z,1013.41
2018-08-14T07:20:05.415Z,1013.4
2018-08-14T07:20:46.482Z,1013.41
2018-08-14T07:21:27.590Z,1013.42
2018-08-14T07:22:08.508Z,1013.41
2018-08-14T07:22:49.371Z,1013.38
2018-08-14T07:23:30.350Z,1013.41
2018-08-14T07:24:11.319Z,1013.39
2018-08-14T07:24:52.142Z,1013.39
2018-08-14T07:25:33.723Z,1013.42
2018-08-14T07:26:14.578Z,1013.48
2018-08-14T07:26:55.395Z,1013.53
2018-08-14T07:27:36.252Z,1013.52
2018-08-14T07:28:17.106Z,1013.56
2018-08-14T07:28:57.859Z,1013.62
2018-08-14T07:29:38.568Z,1013.62
2018-08-14T07:30:19.335Z,1013.63
2018-08-14T07:31:00.084Z,1013.67
2018-08-14T07:31:40.934Z,1013.65
2018-08-14T07:32:21.663Z,1013.71
2018-08-14T07:33:02.435Z,1013.67
2018-08-14T07:33:43.488Z,1013.72
2018-08-14T07:34:24.479Z,1013.7
2018-08-14T07:35:05.458Z,1013.72
2018-08-14T07:35:46.440Z,1013.76
2018-08-14T07:36:27.216Z,1013.75
2018-08-14T07:37:08.073Z,1013.77
2018-08-14T07:37:48.846Z,1013.78
2018-08-14T07:38:29.537Z,1013.78
2018-08-14T07:39:10.346Z,1013.78
2018-08-14T07:39:51.108Z,1013.8
2018-08-14T07:40:31.962Z,1013.79
2018-08-14T07:41:12.815Z,1013.79
2018-08-14T07:41:53.594Z,1013.76
2018-08-14T07:42:34.470Z,1013.71
2018-08-14T07:43:15.317Z,1013.71
2018-08-14T07:43:56.129Z,1013.73
2018-08-14T07:44:36.856Z,1013.73
2018-08-14T07:45:17.621Z,1013.72
2018-08-14T07:45:58.367Z,1013.58
2018-08-14T07:46:39.220Z,1013.63
2018-08-14T07:47:20.134Z,1013.61
2018-08-14T07:48:00.986Z,1013.63
2018-08-14T07:48:41.758Z,1013.62
2018-08-14T07:49:22.652Z,1013.62
2018-08-14T07:50:03.646Z,1013.65
2018-08-14T07:50:44.630Z,1013.72
2018-08-14T07:51:25.497Z,1013.68
2018-08-14T07:52:06.456Z,1013.72
2018-08-14T07:52:47.363Z,1013.68
2018-08-14T07:53:28.343Z,1013.74
2018-08-14T07:54:09.375Z,1013.73
2018-08-14T07:54:50.379Z,1013.73
2018-08-14T07:55:31.101Z,1013.71
2018-08-14T07:56:11.862Z,1013.68
2018-08-14T07:56:52.610Z,1013.65
2018-08-14T07:57:33.383Z,1013.57
2018-08-14T07:58:14.232Z,1013.49
2018-08-14T07:58:54.929Z,1013.51
2018-08-14T07:59:35.687Z,1013.49
2018-08-14T08:00:16.503Z,1013.46
2018-08-14T08:00:57.357Z,1013.44
2018-08-14T08:01:38.117Z,1013.42
2018-08-14T08:02:18.900Z,1013.45
2018-08-14T08:02:59.610Z,1013.48
2018-08-14T08:03:40.420Z,1013.49
2018-08-14T08:04:21.297Z,1013.49
2018-08-14T08:05:02.122Z,1013.53
2018-08-14T08:05:43.084Z,1013.53
2018-08-14T08:06:23.819Z,1013.54
2018-08-14T08:07:04.577Z,1013.51
2018-08-14T08:07:45.377Z,1013.54
2018-08-14T08:08:26.122Z,1013.51
2018-08-14T08:09:06.873Z,1013.54
2018-08-14T08:09:47.622Z,1013.53
2018-08-14T08:10:28.428Z,1013.51
2018-08-14T08:11:09.270Z,1013.55
2018-08-14T08:11:50.021Z,1013.52
2018-08-14T08:12:30.789Z,1013.53
2018-08-14T08:13:11.659Z,1013.5
2018-08-14T08:13:52.529Z,1013.52
2018-08-14T08:14:33.383Z,1013.54
2018-08-14T08:15:14.197Z,1013.54
2018-08-14T08:15:55.000Z,1013.52
2018-08-14T08:16:35.888Z,1013.54
2018-08-14T08:17:16.637Z,1013.5
2018-08-14T08:17:57.381Z,1013.5
2018-08-14T08:18:38.091Z,1013.52
2018-08-14T08:19:18.908Z,1013.49
2018-08-14T08:19:59.754Z,1013.45
2018-08-14T08:20:40.604Z,1013.49
2018-08-14T08:21:21.376Z,1013.51
2018-08-14T08:22:02.073Z,1013.47
2018-08-14T08:22:42.801Z,1013.45
2018-08-14T08:23:23.564Z,1013.51
2018-08-14T08:24:04.386Z,1013.48
2018-08-14T08:24:45.131Z,1013.5
2018-08-14T08:25:25.887Z,1013.49
2018-08-14T08:26:06.772Z,1013.49
2018-08-14T08:26:47.574Z,1013.49
2018-08-14T08:27:28.430Z,1013.49
2018-08-14T08:28:09.212Z,1013.5
2018-08-14T08:28:49.934Z,1013.46
2018-08-14T08:29:30.686Z,1013.47
2018-08-14T08:30:11.489Z,1013.45
2018-08-14T08:30:52.342Z,1013.47
2018-08-14T08:31:33.248Z,1013.44
2018-08-14T08:32:13.921Z,1013.5
2018-08-14T08:32:54.665Z,1013.48
2018-08-14T08:33:35.537Z,1013.48
2018-08-14T08:34:16.347Z,1013.43
2018-08-14T08:34:56.986Z,1013.44
2018-08-14T08:35:37.705Z,1013.42
2018-08-14T08:36:18.463Z,1013.41
2018-08-14T08:36:59.327Z,1013.43
2018-08-14T08:37:40.106Z,1013.43
2018-08-14T08:38:21.009Z,1013.43
2018-08-14T08:39:01.749Z,1013.43
2018-08-14T08:39:42.520Z,1013.42
2018-08-14T08:40:23.218Z,1013.45
2018-08-14T08:41:04.033Z,1013.48
2018-08-14T08:41:44.859Z,1013.46
2018-08-14T08:42:25.607Z,1013.47
2018-08-14T08:43:06.422Z,1013.44
2018-08-14T08:43:47.309Z,1013.47
2018-08-14T08:44:28.143Z,1013.45
2018-08-14T08:45:08.999Z,1013.47
2018-08-14T08:45:49.748Z,1013.48
2018-08-14T08:46:30.543Z,1013.46
2018-08-14T08:47:11.376Z,1013.47
2018-08-14T08:47:52.230Z,1013.47
2018-08-14T08:48:32.977Z,1013.47
2018-08-14T08:49:13.715Z,1013.47
2018-08-14T08:49:54.569Z,1013.48
2018-08-14T08:50:35.363Z,1013.46
2018-08-14T08:51:16.146Z,1013.45
2018-08-14T08:51:57.036Z,1013.46
2018-08-14T08:52:37.833Z,1013.46
2018-08-14T08:53:18.729Z,1013.45
2018-08-14T08:53:59.562Z,1013.45
2018-08-14T08:54:40.267Z,1013.48
2018-08-14T08:55:21.020Z,1013.47
2018-08-14T08:56:01.824Z,1013.5
2018-08-14T08:56:42.662Z,1013.51
2018-08-14T08:57:23.500Z,1013.5
2018-08-14T08:58:04.411Z,1013.51
2018-08-14T08:58:45.135Z,1013.5
2018-08-14T08:59:25.906Z,1013.47
2018-08-14T09:00:06.777Z,1013.51
2018-08-14T09:00:47.530Z,1013.53
2018-08-14T09:01:28.256Z,1013.51
2018-08-14T09:02:08.975Z,1013.51
2018-08-14T09:02:49.763Z,1013.52
2018-08-14T09:03:30.594Z,1013.5
2018-08-14T09:04:11.347Z,1013.49
2018-08-14T09:04:52.153Z,1013.52
2018-08-14T09:05:33.009Z,1013.52
2018-08-14T09:06:13.846Z,1013.52
2018-08-14T09:06:54.636Z,1013.52
2018-08-14T09:07:35.400Z,1013.54
2018-08-14T09:08:16.237Z,1013.54
2018-08-14T09:08:57.037Z,1013.53
2018-08-14T09:09:37.792Z,1013.56
2018-08-14T09:10:18.494Z,1013.54
2018-08-14T09:10:59.235Z,1013.57
2018-08-14T09:11:40.092Z,1013.59
2018-08-14T09:12:20.911Z,1013.6
2018-08-14T09:13:01.805Z,1013.63
2018-08-14T09:13:42.590Z,1013.62
2018-08-14T09:14:23.304Z,1013.65
2018-08-14T09:15:04.116Z,1013.61
2018-08-14T09:15:44.895Z,1013.63
2018-08-14T09:16:25.728Z,1013.64
2018-08-14T09:17:06.465Z,1013.69
2018-08-14T09:17:47.229Z,1013.64
2018-08-14T09:18:28.051Z,1013.65
2018-08-14T09:19:08.939Z,1013.64
2018-08-14T09:19:49.783Z,1013.64
2018-08-14T09:20:30.491Z,1013.64
2018-08-14T09:21:11.290Z,1013.62
2018-08-14T09:21:52.118Z,1013.61
2018-08-14T09:22:32.856Z,1013.65
2018-08-14T09:23:13.631Z,1013.64
2018-08-14T09:23:54.418Z,1013.68
2018-08-14T09:24:35.240Z,1013.63
2018-08-14T09:25:16.058Z,1013.61
2018-08-14T09:25:56.797Z,1013.65
2018-08-14T09:26:37.599Z,1013.65
2018-08-14T09:27:18.483Z,1013.65
2018-08-14T09:27:59.307Z,1013.66
2018-08-14T09:28:40.115Z,1013.62
2018-08-14T09:29:20.883Z,1013.66
2018-08-14T09:30:01.743Z,1013.65
2018-08-14T09:30:42.426Z,1013.67
2018-08-14T09:31:23.324Z,1013.7
2018-08-14T09:32:04.156Z,1013.68
2018-08-14T09:32:44.968Z,1013.65
2018-08-14T09:33:25.689Z,1013.66
2018-08-14T09:34:06.439Z,1013.68
2018-08-14T09:34:47.294Z,1013.69
2018-08-14T09:35:28.128Z,1013.67
2018-08-14T09:36:08.839Z,1013.65
2018-08-14T09:36:49.622Z,1013.66
2018-08-14T09:37:30.416Z,1013.67
2018-08-14T09:38:11.264Z,1013.68
2018-08-14T09:38:52.063Z,1013.72
2018-08-14T09:39:32.877Z,1013.72
2018-08-14T09:40:13.632Z,1013.74
2018-08-14T09:40:54.362Z,1013.73
2018-08-14T09:41:35.149Z,1013.72
2018-08-14T09:42:15.952Z,1013.74
2018-08-14T09:42:56.790Z,1013.75
2018-08-14T09:43:37.513Z,1013.75
2018-08-14T09:44:18.372Z,1013.78
2018-08-14T09:44:59.188Z,1013.8
2018-08-14T09:45:40.019Z,1013.76
2018-08-14T09:46:20.786Z,1013.83
2018-08-14T09:47:01.545Z,1013.79
2018-08-14T09:47:42.338Z,1013.77
2018-08-14T09:48:23.107Z,1013.77
2018-08-14T09:49:03.924Z,1013.78
2018-08-14T09:49:44.729Z,1013.75
2018-08-14T09:50:25.551Z,1013.78
2018-08-14T09:51:06.278Z,1013.8
2018-08-14T09:51:47.049Z,1013.75
2018-08-14T09:52:27.876Z,1013.82
2018-08-14T09:53:08.642Z,1013.84
2018-08-14T09:53:49.375Z,1013.81
2018-08-14T09:54:30.148Z,1013.81
2018-08-14T09:55:10.938Z,1013.82
2018-08-14T09:55:51.763Z,1013.83
2018-08-14T09:56:32.544Z,1013.88
2018-08-14T09:57:13.412Z,1013.85
2018-08-14T09:57:54.280Z,1013.88
2018-08-14T09:58:35.076Z,1013.88
2018-08-14T09:59:15.896Z,1013.85
2018-08-14T09:59:56.638Z,1013.9
2018-08-14T10:00:37.504Z,1013.87
2018-08-14T10:01:18.333Z,1013.91
2018-08-14T10:01:59.056Z,1013.92
2018-08-14T10:02:39.789Z,1013.94
2018-08-14T10:03:20.519Z,1013.95
2018-08-14T10:04:01.316Z,1013.97
2018-08-14T10:04:42.231Z,1013.95
2018-08-14T10:05:23.150Z,1013.9
2018-08-14T10:06:03.888Z,1013.93
2018-08-14T10:06:44.631Z,1013.92
2018-08-14T10:07:25.375Z,1013.91
2018-08-14T10:08:06.152Z,1013.91
2018-08-14T10:08:47.029Z,1013.9
2018-08-14T10:09:27.712Z,1013.92
2018-08-14T10:10:08.506Z,1013.93
2018-08-14T10:10:49.341Z,1013.93
2018-08-14T10:11:30.111Z,1013.89
2018-08-14T10:12:10.919Z,1013.88
2018-08-14T10:12:51.682Z,1013.89
2018-08-14T10:13:32.422Z,1013.9
2018-08-14T10:14:13.169Z,1013.88
2018-08-14T10:14:53.987Z,1013.88
2018-08-14T10:15:34.791Z,1013.87
2018-08-14T10:16:15.617Z,1013.88
2018-08-14T10:16:56.359Z,1013.95
2018-08-14T10:17:37.185Z,1013.92
2018-08-14T10:18:18.039Z,1013.93
2018-08-14T10:18:58.822Z,1013.94
2018-08-14T10:19:39.575Z,1013.91
2018-08-14T10:20:20.382Z,1013.94
2018-08-14T10:21:01.188Z,1013.93
2018-08-14T10:21:42.013Z,1013.97
2018-08-14T10:22:22.831Z,1013.94
2018-08-14T10:23:03.657Z,1013.89
2018-08-14T10:23:44.584Z,1013.88
2018-08-14T10:24:25.183Z,1013.9
2018-08-14T10:25:05.948Z,1013.88
2018-08-14T10:25:46.805Z,1013.9
2018-08-14T10:26:27.594Z,1013.89
2018-08-14T10:27:08.301Z,1013.83
2018-08-14T10:27:49.147Z,1013.88
2018-08-14T10:28:30.021Z,1013.92
2018-08-14T10:29:10.770Z,1013.91
2018-08-14T10:29:51.528Z,1013.89
2018-08-14T10:30:32.312Z,1013.84
2018-08-14T10:31:13.171Z,1013.9
2018-08-14T10:31:53.964Z,1013.88
2018-08-14T10:32:34.785Z,1013.85
2018-08-14T10:33:15.506Z,1013.89
2018-08-14T10:33:56.275Z,1013.84
2018-08-14T10:34:37.139Z,1013.81
2018-08-14T10:35:17.947Z,1013.83
2018-08-14T10:35:58.739Z,1013.79
2018-08-14T10:36:39.600Z,1013.84
2018-08-14T10:37:20.464Z,1013.85
2018-08-14T10:38:01.262Z,1013.83
2018-08-14T10:38:41.994Z,1013.85
2018-08-14T10:39:22.743Z,1013.85
2018-08-14T10:40:03.589Z,1013.85
2018-08-14T10:40:44.395Z,1013.81
2018-08-14T10:41:25.201Z,1013.86
2018-08-14T10:42:06.089Z,1013.8
2018-08-14T10:42:46.859Z,1013.83
2018-08-14T10:43:27.626Z,1013.81
2018-08-14T10:44:08.438Z,1013.8
2018-08-14T10:44:49.244Z,1013.79
2018-08-14T10:45:30.180Z,1013.83
2018-08-14T10:46:10.929Z,1013.8
2018-08-14T10:46:51.654Z,1013.79
2018-08-14T10:47:32.510Z,1013.75
2018-08-14T10:48:13.348Z,1013.77
2018-08-14T10:48:54.149Z,1013.76
2018-08-14T10:49:34.881Z,1013.76
2018-08-14T10:50:15.631Z,1013.77
2018-08-14T10:50:56.346Z,1013.75
2018-08-14T10:51:37.201Z,1013.74
2018-08-14T10:52:17.943Z,1013.78
2018-08-14T10:52:58.730Z,1013.72
2018-08-14T10:53:39.562Z,1013.72
2018-08-14T10:54:20.341Z,1013.76
2018-08-14T10:55:01.241Z,1013.74
2018-08-14T10:55:41.986Z,1013.76
2018-08-14T10:56:22.793Z,1013.79
2018-08-14T10:57:03.574Z,1013.8
2018-08-14T10:57:44.412Z,1013.79
2018-08-14T10:58:25.273Z,1013.79
2018-08-14T10:59:06.082Z,1013.77
2018-08-14T10:59:46.861Z,1013.79
2018-08-14T11:00:27.626Z,1013.81
2018-08-14T11:01:08.461Z,1013.8
2018-08-14T11:01:49.283Z,1013.82
2018-08-14T11:02:30.064Z,1013.79
2018-08-14T11:03:10.809Z,1013.81
2018-08-14T11:03:51.584Z,1013.82
2018-08-14T11:04:32.432Z,1013.8
2018-08-14T11:05:13.254Z,1013.8
2018-08-14T11:05:53.995Z,1013.83
2018-08-14T11:06:34.779Z,1013.82
2018-08-14T11:07:15.598Z,1013.78
2018-08-14T11:07:56.462Z,1013.8
2018-08-14T11:08:37.224Z,1013.79
2018-08-14T11:09:17.952Z,1013.81
2018-08-14T11:09:58.808Z,1013.84
2018-08-14T11:10:39.667Z,1013.86
2018-08-14T11:11:20.391Z,1013.87
2018-08-14T11:12:01.130Z,1013.86
2018-08-14T11:12:41.883Z,1013.84
2018-08-14T11:13:22.714Z,1013.8
2018-08-14T11:14:03.526Z,1013.83
2018-08-14T11:14:44.360Z,1013.81
2018-08-14T11:15:25.146Z,1013.86
2018-08-14T11:16:05.992Z,1013.85
2018-08-14T11:16:46.798Z,1013.86
2018-08-14T11:17:27.623Z,1013.87
2018-08-14T11:18:08.436Z,1013.85
2018-08-14T11:18:49.159Z,1013.86
2018-08-14T11:19:29.904Z,1013.83
2018-08-14T11:20:10.739Z,1013.82
2018-08-14T11:20:51.554Z,1013.87
2018-08-14T11:21:32.394Z,1013.78
2018-08-14T11:22:13.118Z,1013.82
2018-08-14T11:22:53.969Z,1013.8
2018-08-14T11:23:34.757Z,1013.78
2018-08-14T11:24:15.554Z,1013.8
2018-08-14T11:24:56.329Z,1013.84
2018-08-14T11:25:37.072Z,1013.83
2018-08-14T11:26:17.887Z,1013.84
2018-08-14T11:26:58.715Z,1013.82
2018-08-14T11:27:39.485Z,1013.87
2018-08-14T11:28:20.346Z,1013.85
2018-08-14T11:29:01.164Z,1013.86
2018-08-14T11:29:42.021Z,1013.88
2018-08-14T11:30:22.831Z,1013.9
2018-08-14T11:31:03.561Z,1013.89
2018-08-14T11:31:44.277Z,1013.87
2018-08-14T11:32:25.066Z,1013.89
2018-08-14T11:33:05.896Z,1013.91
2018-08-14T11:33:46.732Z,1013.93
2018-08-14T11:34:27.568Z,1013.95
2018-08-14T11:35:08.278Z,1013.89
2018-08-14T11:35:49.207Z,1013.85
2018-08-14T11:36:29.919Z,1013.91
2018-08-14T11:37:10.674Z,1013.85
2018-08-14T11:37:51.397Z,1013.89
2018-08-14T11:38:32.202Z,1013.84
2018-08-14T11:39:13.061Z,1013.84
2018-08-14T11:39:53.858Z,1013.86
2018-08-14T11:40:34.503Z,1013.87
2018-08-14T11:41:15.288Z,1013.88
2018-08-14T11:41:56.078Z,1013.87
2018-08-14T11:42:36.883Z,1013.86
2018-08-14T11:43:17.730Z,1013.89
2018-08-14T11:43:58.537Z,1013.91
2018-08-14T11:44:39.395Z,1013.9
2018-08-14T11:45:20.171Z,1013.87
2018-08-14T11:46:01.038Z,1013.91
2018-08-14T11:46:41.650Z,1013.91
2018-08-14T11:47:22.436Z,1013.89
2018-08-14T11:48:03.355Z,1013.9
2018-08-14T11:48:44.202Z,1013.92
2018-08-14T11:49:25.134Z,1013.92
2018-08-14T11:50:05.961Z,1013.92
2018-08-14T11:50:46.901Z,1013.89
2018-08-14T11:51:27.733Z,1013.88
2018-08-14T11:52:08.533Z,1013.87
2018-08-14T11:52:49.374Z,1013.92
2018-08-14T11:53:30.146Z,1013.92
2018-08-14T11:54:10.896Z,1013.91
2018-08-14T11:54:51.785Z,1013.88
2018-08-14T11:55:32.645Z,1013.9
2018-08-14T11:56:13.437Z,1013.84
2018-08-14T11:56:54.189Z,1013.85
2018-08-14T11:57:35.004Z,1013.86
2018-08-14T11:58:15.687Z,1013.85
2018-08-14T11:58:56.517Z,1013.85
2018-08-14T11:59:37.327Z,1013.85
2018-08-14T12:00:18.167Z,1013.82
2018-08-14T12:00:58.991Z,1013.86
2018-08-14T12:01:39.879Z,1013.87
2018-08-14T12:02:20.706Z,1013.85
2018-08-14T12:03:01.546Z,1013.88
2018-08-14T12:03:42.283Z,1013.87
2018-08-14T12:04:23.023Z,1013.89
2018-08-14T12:05:03.766Z,1013.83
2018-08-14T12:05:44.621Z,1013.89
2018-08-14T12:06:25.440Z,1013.83
2018-08-14T12:07:06.391Z,1013.87
2018-08-14T12:07:47.150Z,1013.82
2018-08-14T12:08:27.900Z,1013.83
2018-08-14T12:09:08.647Z,1013.82
2018-08-14T12:09:49.463Z,1013.85
2018-08-14T12:10:30.323Z,1013.85
2018-08-14T12:11:11.142Z,1013.87
2018-08-14T12:11:52.186Z,1013.86
2018-08-14T12:12:32.982Z,1013.83
2018-08-14T12:13:13.895Z,1013.86
2018-08-14T12:13:54.704Z,1013.9
2018-08-14T12:14:35.523Z,1013.89
2018-08-14T12:15:16.364Z,1013.82
2018-08-14T12:15:57.183Z,1013.85
2018-08-14T12:16:37.918Z,1013.87
2018-08-14T12:17:18.898Z,1013.89
2018-08-14T12:17:59.659Z,1013.89
2018-08-14T12:18:40.479Z,1013.86
2018-08-14T12:19:21.292Z,1013.9
2018-08-14T12:20:02.061Z,1013.86
2018-08-14T12:20:42.912Z,1013.83
2018-08-14T12:21:23.711Z,1013.85
2018-08-14T12:22:04.532Z,1013.89
2018-08-14T12:22:45.310Z,1013.82
2018-08-14T12:23:26.184Z,1013.87
2018-08-14T12:24:07.144Z,1013.77
2018-08-14T12:24:47.998Z,1013.81
2018-08-14T12:25:28.901Z,1013.82
2018-08-14T12:26:09.816Z,1013.84
2018-08-14T12:26:50.876Z,1013.84
2018-08-14T12:27:31.799Z,1013.77
2018-08-14T12:28:12.794Z,1013.85
2018-08-14T12:28:53.872Z,1013.78
2018-08-14T12:29:34.760Z,1013.8
2018-08-14T12:30:15.729Z,1013.82
2018-08-14T12:30:56.622Z,1013.8
2018-08-14T12:31:37.478Z,1013.8
2018-08-14T12:32:18.457Z,1013.82
2018-08-14T12:32:59.471Z,1013.83
2018-08-14T12:33:40.471Z,1013.82
2018-08-14T12:34:21.356Z,1013.83
2018-08-14T12:35:02.309Z,1013.84
2018-08-14T12:35:43.014Z,1013.83
2018-08-14T12:36:23.857Z,1013.83
2018-08-14T12:37:04.693Z,1013.82
2018-08-14T12:37:45.471Z,1013.78
2018-08-14T12:38:26.248Z,1013.72
2018-08-14T12:39:07.128Z,1013.79
2018-08-14T12:39:47.954Z,1013.76
2018-08-14T12:40:28.798Z,1013.77
2018-08-14T12:41:09.525Z,1013.72
2018-08-14T12:41:50.347Z,1013.74
2018-08-14T12:42:31.127Z,1013.77
2018-08-14T12:43:11.980Z,1013.77
2018-08-14T12:43:52.774Z,1013.73
2018-08-14T12:44:33.627Z,1013.75
2018-08-14T12:45:14.374Z,1013.7
2018-08-14T12:45:55.183Z,1013.7
2018-08-14T12:46:35.993Z,1013.79
2018-08-14T12:47:16.737Z,1013.8
2018-08-14T12:47:57.510Z,1013.76
2018-08-14T12:48:38.258Z,1013.71
2018-08-14T12:49:19.049Z,1013.74
2018-08-14T12:49:59.854Z,1013.79
2018-08-14T12:50:40.600Z,1013.77
2018-08-14T12:51:21.371Z,1013.73
2018-08-14T12:52:02.379Z,1013.78
2018-08-14T12:52:43.194Z,1013.73
2018-08-14T12:53:24.045Z,1013.7
2018-08-14T12:54:04.873Z,1013.76
2018-08-14T12:54:45.658Z,1013.72
2018-08-14T12:55:26.624Z,1013.76
2018-08-14T12:56:07.371Z,1013.77
2018-08-14T12:56:48.229Z,1013.77
2018-08-14T12:57:29.031Z,1013.78
2018-08-14T12:58:09.846Z,1013.79
2018-08-14T12:58:50.710Z,1013.71
2018-08-14T12:59:31.554Z,1013.71
2018-08-14T13:00:12.306Z,1013.7
2018-08-14T13:00:53.150Z,1013.7
2018-08-14T13:01:33.921Z,1013.64
2018-08-14T13:02:14.687Z,1013.65
2018-08-14T13:02:55.517Z,1013.67
2018-08-14T13:03:36.274Z,1013.68
2018-08-14T13:04:17.134Z,1013.67
2018-08-14T13:04:57.989Z,1013.69
2018-08-14T13:05:38.783Z,1013.71
2018-08-14T13:06:19.700Z,1013.7
2018-08-14T13:07:00.408Z,1013.7
2018-08-14T13:07:41.165Z,1013.74
2018-08-14T13:08:22.010Z,1013.71
2018-08-14T13:09:02.847Z,1013.73
2018-08-14T13:09:43.636Z,1013.67
2018-08-14T13:10:24.509Z,1013.67
2018-08-14T13:11:05.235Z,1013.71
2018-08-14T13:11:46.027Z,1013.69
2018-08-14T13:12:26.874Z,1013.72
2018-08-14T13:13:07.617Z,1013.73
2018-08-14T13:13:48.362Z,1013.68
2018-08-14T13:14:29.138Z,1013.73
2018-08-14T13:15:09.964Z,1013.69
2018-08-14T13:15:50.836Z,1013.69
2018-08-14T13:16:31.762Z,1013.71
2018-08-14T13:17:12.583Z,1013.72
2018-08-14T13:17:53.456Z,1013.67
2018-08-14T13:18:34.259Z,1013.63
2018-08-14T13:19:15.022Z,1013.65
2018-08-14T13:19:55.842Z,1013.7
2018-08-14T13:20:36.693Z,1013.7
2018-08-14T13:21:17.520Z,1013.74
2018-08-14T13:21:58.467Z,1013.67
2018-08-14T13:22:39.343Z,1013.67
2018-08-14T13:23:20.157Z,1013.67
2018-08-14T13:24:00.932Z,1013.68
2018-08-14T13:24:41.833Z,1013.68
2018-08-14T13:25:22.653Z,1013.59
2018-08-14T13:26:03.478Z,1013.66
2018-08-14T13:26:44.240Z,1013.69
2018-08-14T13:27:24.936Z,1013.62
2018-08-14T13:28:05.712Z,1013.66
2018-08-14T13:28:46.576Z,1013.62
2018-08-14T13:29:27.309Z,1013.6
2018-08-14T13:30:08.099Z,1013.64
2018-08-14T13:30:48.966Z,1013.62
2018-08-14T13:31:29.862Z,1013.62
2018-08-14T13:32:10.748Z,1013.67
2018-08-14T13:32:51.593Z,1013.69
2018-08-14T13:33:32.279Z,1013.63
2018-08-14T13:34:13.016Z,1013.63
2018-08-14T13:34:53.826Z,1013.62
2018-08-14T13:35:35.052Z,1013.63
2018-08-14T13:36:16.259Z,1013.66
2018-08-14T13:36:57.099Z,1013.58
2018-08-14T13:37:38.166Z,1013.61
2018-08-14T13:38:19.123Z,1013.58
2018-08-14T13:39:00.269Z,1013.6
2018-08-14T13:39:41.074Z,1013.57
2018-08-14T13:40:21.898Z,1013.59
2018-08-14T13:41:02.624Z,1013.6
2018-08-14T13:41:43.442Z,1013.59
2018-08-14T13:42:24.304Z,1013.54
2018-08-14T13:43:05.011Z,1013.54
2018-08-14T13:43:45.873Z,1013.57
2018-08-14T13:44:26.813Z,1013.58
2018-08-14T13:45:07.854Z,1013.56
2018-08-14T13:45:48.712Z,1013.56
2018-08-14T13:46:29.461Z,1013.61
2018-08-14T13:47:10.938Z,1013.58
2018-08-14T13:47:51.785Z,1013.62
2018-08-14T13:48:32.518Z,1013.68
2018-08-14T13:49:13.311Z,1013.67
2018-08-14T13:49:54.080Z,1013.62
2018-08-14T13:50:34.948Z,1013.65
2018-08-14T13:51:15.794Z,1013.66
2018-08-14T13:51:56.710Z,1013.65
2018-08-14T13:52:37.485Z,1013.61
2018-08-14T13:53:18.242Z,1013.62
2018-08-14T13:53:59.014Z,1013.62
2018-08-14T13:54:39.863Z,1013.59
2018-08-14T13:55:20.684Z,1013.62
2018-08-14T13:56:01.423Z,1013.61
2018-08-14T13:56:42.478Z,1013.61
2018-08-14T13:57:23.324Z,1013.6
2018-08-14T13:58:04.217Z,1013.58
2018-08-14T13:58:44.966Z,1013.63
2018-08-14T13:59:25.790Z,1013.64
2018-08-14T14:00:06.620Z,1013.61
2018-08-14T14:00:47.431Z,1013.55
2018-08-14T14:01:28.178Z,1013.56
2018-08-14T14:02:08.914Z,1013.59
2018-08-14T14:02:49.680Z,1013.52
2018-08-14T14:03:30.702Z,1013.55
2018-08-14T14:04:11.489Z,1013.53
2018-08-14T14:04:52.283Z,1013.55
2018-08-14T14:05:33.150Z,1013.52
2018-08-14T14:06:13.955Z,1013.51
2018-08-14T14:06:54.789Z,1013.47
2018-08-14T14:07:35.582Z,1013.51
2018-08-14T14:08:16.350Z,1013.51
2018-08-14T14:08:57.156Z,1013.55
2018-08-14T14:09:37.982Z,1013.56
2018-08-14T14:10:18.869Z,1013.53
2018-08-14T14:10:59.754Z,1013.55
2018-08-14T14:11:40.523Z,1013.52
2018-08-14T14:12:21.313Z,1013.52
2018-08-14T14:13:02.118Z,1013.5
2018-08-14T14:13:42.989Z,1013.5
2018-08-14T14:14:23.746Z,1013.51
2018-08-14T14:15:04.537Z,1013.52
2018-08-14T14:15:45.353Z,1013.56
2018-08-14T14:16:26.200Z,1013.49
2018-08-14T14:17:07.108Z,1013.52
2018-08-14T14:17:47.947Z,1013.5
2018-08-14T14:18:28.691Z,1013.5
2018-08-14T14:19:09.437Z,1013.48
2018-08-14T14:19:50.252Z,1013.52
2018-08-14T14:20:31.014Z,1013.48
2018-08-14T14:21:11.923Z,1013.47
2018-08-14T14:21:52.689Z,1013.49
2018-08-14T14:22:33.471Z,1013.45
2018-08-14T14:23:14.305Z,1013.44
2018-08-14T14:23:55.062Z,1013.48
2018-08-14T14:24:35.937Z,1013.51
2018-08-14T14:25:16.795Z,1013.52
2018-08-14T14:25:57.486Z,1013.43
2018-08-14T14:26:38.214Z,1013.45
2018-08-14T14:27:19.042Z,1013.42
2018-08-14T14:27:59.862Z,1013.44
2018-08-14T14:28:40.688Z,1013.5
2018-08-14T14:29:21.428Z,1013.55
2018-08-14T14:30:02.204Z,1013.57